sensor_id;sensor_type;location;lat;lon;timestamp;P1;durP1;ratioP1;P2;durP2;ratioP2
43142;SDS011;28750;59.842;17.584;2023-03-23T00:01:29;13.52;;;3.60;;
43142;SDS011;28750;59.842;17.584;2023-03-23T00:04:02;16.90;;;4.35;;
43142;SDS011;28750;59.842;17.584;2023-03-23T00:06:29;18.65;;;4.47;;
43142;SDS011;28750;59.842;17.584;2023-03-23T00:08:58;20.50;;;4.55;;
43142;SDS011;28750;59.842;17.584;2023-03-23T00:11:30;18.20;;;3.78;;
43142;SDS011;28750;59.842;17.584;2023-03-23T00:13:58;19.15;;;5.15;;
43142;SDS011;28750;59.842;17.584;2023-03-23T00:16:28;24.30;;;3.88;;
43142;SDS011;28750;59.842;17.584;2023-03-23T00:19:01;20.05;;;4.28;;
43142;SDS011;28750;59.842;17.584;2023-03-23T00:21:32;20.85;;;3.47;;
43142;SDS011;28750;59.842;17.584;2023-03-23T00:26:32;18.88;;;3.70;;
43142;SDS011;28750;59.842;17.584;2023-03-23T00:29:01;22.90;;;4.20;;
43142;SDS011;28750;59.842;17.584;2023-03-23T00:31:29;23.35;;;4.55;;
43142;SDS011;28750;59.842;17.584;2023-03-23T00:34:01;21.52;;;4.03;;
43142;SDS011;28750;59.842;17.584;2023-03-23T00:36:31;23.92;;;4.63;;
43142;SDS011;28750;59.842;17.584;2023-03-23T00:39:02;20.50;;;4.07;;
43142;SDS011;28750;59.842;17.584;2023-03-23T00:41:30;21.20;;;4.75;;
43142;SDS011;28750;59.842;17.584;2023-03-23T00:43:58;16.25;;;4.22;;
43142;SDS011;28750;59.842;17.584;2023-03-23T00:46:26;20.80;;;4.50;;
43142;SDS011;28750;59.842;17.584;2023-03-23T00:48:54;25.13;;;5.10;;
43142;SDS011;28750;59.842;17.584;2023-03-23T00:51:23;26.40;;;4.00;;
43142;SDS011;28750;59.842;17.584;2023-03-23T00:53:50;21.90;;;4.68;;
43142;SDS011;28750;59.842;17.584;2023-03-23T00:56:17;22.48;;;4.68;;
43142;SDS011;28750;59.842;17.584;2023-03-23T00:58:44;19.88;;;4.10;;
43142;SDS011;28750;59.842;17.584;2023-03-23T01:01:11;25.77;;;6.53;;
43142;SDS011;28750;59.842;17.584;2023-03-23T01:03:38;21.63;;;3.92;;
43142;SDS011;28750;59.842;17.584;2023-03-23T01:06:06;27.23;;;4.65;;
43142;SDS011;28750;59.842;17.584;2023-03-23T01:08:38;31.02;;;5.65;;
43142;SDS011;28750;59.842;17.584;2023-03-23T01:11:10;24.83;;;5.15;;
43142;SDS011;28750;59.842;17.584;2023-03-23T01:13:39;31.83;;;5.45;;
43142;SDS011;28750;59.842;17.584;2023-03-23T01:16:07;25.67;;;5.95;;
43142;SDS011;28750;59.842;17.584;2023-03-23T01:18:35;30.88;;;5.53;;
43142;SDS011;28750;59.842;17.584;2023-03-23T01:21:13;24.38;;;4.95;;
43142;SDS011;28750;59.842;17.584;2023-03-23T01:23:42;35.33;;;5.22;;
43142;SDS011;28750;59.842;17.584;2023-03-23T01:26:11;25.48;;;5.82;;
43142;SDS011;28750;59.842;17.584;2023-03-23T01:28:40;28.70;;;5.23;;
43142;SDS011;28750;59.842;17.584;2023-03-23T01:31:12;40.08;;;6.93;;
43142;SDS011;28750;59.842;17.584;2023-03-23T01:33:41;23.90;;;5.75;;
43142;SDS011;28750;59.842;17.584;2023-03-23T01:36:14;41.10;;;5.55;;
43142;SDS011;28750;59.842;17.584;2023-03-23T01:38:43;31.02;;;4.63;;
43142;SDS011;28750;59.842;17.584;2023-03-23T01:41:11;34.03;;;6.03;;
43142;SDS011;28750;59.842;17.584;2023-03-23T01:43:55;30.02;;;6.70;;
43142;SDS011;28750;59.842;17.584;2023-03-23T01:46:23;36.20;;;5.90;;
43142;SDS011;28750;59.842;17.584;2023-03-23T01:48:53;39.65;;;6.93;;
43142;SDS011;28750;59.842;17.584;2023-03-23T01:51:23;27.60;;;5.53;;
43142;SDS011;28750;59.842;17.584;2023-03-23T01:53:57;23.40;;;6.20;;
43142;SDS011;28750;59.842;17.584;2023-03-23T01:56:30;28.00;;;4.72;;
43142;SDS011;28750;59.842;17.584;2023-03-23T01:59:06;34.22;;;5.93;;
43142;SDS011;28750;59.842;17.584;2023-03-23T02:01:36;25.70;;;5.18;;
43142;SDS011;28750;59.842;17.584;2023-03-23T02:04:04;25.27;;;5.93;;
43142;SDS011;28750;59.842;17.584;2023-03-23T02:06:32;35.20;;;5.75;;
43142;SDS011;28750;59.842;17.584;2023-03-23T02:08:59;30.67;;;6.75;;
43142;SDS011;28750;59.842;17.584;2023-03-23T02:11:27;41.40;;;6.60;;
43142;SDS011;28750;59.842;17.584;2023-03-23T02:13:54;35.95;;;6.32;;
43142;SDS011;28750;59.842;17.584;2023-03-23T02:24:08;31.63;;;5.60;;
43142;SDS011;28750;59.842;17.584;2023-03-23T02:27:00;47.40;;;7.25;;
43142;SDS011;28750;59.842;17.584;2023-03-23T02:32:46;34.55;;;5.93;;
43142;SDS011;28750;59.842;17.584;2023-03-23T02:35:34;24.42;;;5.88;;
43142;SDS011;28750;59.842;17.584;2023-03-23T02:38:09;30.05;;;5.68;;
43142;SDS011;28750;59.842;17.584;2023-03-23T02:40:43;34.92;;;6.07;;
43142;SDS011;28750;59.842;17.584;2023-03-23T02:43:15;31.15;;;5.90;;
43142;SDS011;28750;59.842;17.584;2023-03-23T02:45:45;28.23;;;5.30;;
43142;SDS011;28750;59.842;17.584;2023-03-23T02:48:13;25.25;;;4.57;;
43142;SDS011;28750;59.842;17.584;2023-03-23T02:53:13;31.75;;;6.00;;
43142;SDS011;28750;59.842;17.584;2023-03-23T02:55:44;30.10;;;6.63;;
43142;SDS011;28750;59.842;17.584;2023-03-23T02:58:11;31.83;;;6.32;;
43142;SDS011;28750;59.842;17.584;2023-03-23T03:00:38;34.65;;;4.97;;
43142;SDS011;28750;59.842;17.584;2023-03-23T03:03:06;32.78;;;6.47;;
43142;SDS011;28750;59.842;17.584;2023-03-23T03:10:59;30.00;;;5.47;;
43142;SDS011;28750;59.842;17.584;2023-03-23T03:18:52;32.38;;;6.18;;
43142;SDS011;28750;59.842;17.584;2023-03-23T03:21:28;37.67;;;6.50;;
43142;SDS011;28750;59.842;17.584;2023-03-23T03:23:59;37.65;;;5.65;;
43142;SDS011;28750;59.842;17.584;2023-03-23T03:26:30;26.70;;;4.55;;
43142;SDS011;28750;59.842;17.584;2023-03-23T03:28:59;25.70;;;4.78;;
43142;SDS011;28750;59.842;17.584;2023-03-23T03:31:29;33.03;;;5.85;;
43142;SDS011;28750;59.842;17.584;2023-03-23T03:34:00;41.00;;;5.28;;
43142;SDS011;28750;59.842;17.584;2023-03-23T03:36:28;37.10;;;5.93;;
43142;SDS011;28750;59.842;17.584;2023-03-23T03:39:00;35.38;;;6.25;;
43142;SDS011;28750;59.842;17.584;2023-03-23T03:41:36;30.05;;;5.25;;
43142;SDS011;28750;59.842;17.584;2023-03-23T03:46:32;40.65;;;5.13;;
43142;SDS011;28750;59.842;17.584;2023-03-23T03:49:01;35.20;;;5.38;;
43142;SDS011;28750;59.842;17.584;2023-03-23T03:51:30;29.67;;;5.32;;
43142;SDS011;28750;59.842;17.584;2023-03-23T03:53:58;37.80;;;4.90;;
43142;SDS011;28750;59.842;17.584;2023-03-23T03:56:25;34.20;;;4.78;;
43142;SDS011;28750;59.842;17.584;2023-03-23T03:58:52;30.40;;;5.50;;
43142;SDS011;28750;59.842;17.584;2023-03-23T04:01:20;39.72;;;7.32;;
43142;SDS011;28750;59.842;17.584;2023-03-23T04:03:49;30.10;;;5.53;;
43142;SDS011;28750;59.842;17.584;2023-03-23T04:06:17;36.83;;;6.57;;
43142;SDS011;28750;59.842;17.584;2023-03-23T04:08:44;32.70;;;5.68;;
43142;SDS011;28750;59.842;17.584;2023-03-23T04:11:12;32.05;;;5.55;;
43142;SDS011;28750;59.842;17.584;2023-03-23T04:13:40;35.67;;;6.03;;
43142;SDS011;28750;59.842;17.584;2023-03-23T04:16:07;26.98;;;4.40;;
43142;SDS011;28750;59.842;17.584;2023-03-23T04:18:35;29.65;;;5.43;;
43142;SDS011;28750;59.842;17.584;2023-03-23T04:21:02;32.95;;;6.15;;
43142;SDS011;28750;59.842;17.584;2023-03-23T04:23:32;30.17;;;5.70;;
43142;SDS011;28750;59.842;17.584;2023-03-23T04:26:00;33.35;;;5.75;;
43142;SDS011;28750;59.842;17.584;2023-03-23T04:28:28;32.92;;;6.00;;
43142;SDS011;28750;59.842;17.584;2023-03-23T04:30:58;27.87;;;5.47;;
43142;SDS011;28750;59.842;17.584;2023-03-23T04:33:28;38.30;;;6.55;;
43142;SDS011;28750;59.842;17.584;2023-03-23T04:35:58;39.80;;;7.13;;
43142;SDS011;28750;59.842;17.584;2023-03-23T04:38:27;34.60;;;5.10;;
43142;SDS011;28750;59.842;17.584;2023-03-23T04:40:57;31.27;;;6.35;;
43142;SDS011;28750;59.842;17.584;2023-03-23T04:43:26;31.80;;;4.80;;
43142;SDS011;28750;59.842;17.584;2023-03-23T04:45:53;25.70;;;5.03;;
43142;SDS011;28750;59.842;17.584;2023-03-23T04:48:23;38.17;;;5.85;;
43142;SDS011;28750;59.842;17.584;2023-03-23T04:50:55;35.67;;;6.95;;
43142;SDS011;28750;59.842;17.584;2023-03-23T04:53:24;24.90;;;5.18;;
43142;SDS011;28750;59.842;17.584;2023-03-23T04:55:51;30.95;;;5.95;;
43142;SDS011;28750;59.842;17.584;2023-03-23T04:58:18;29.50;;;6.78;;
43142;SDS011;28750;59.842;17.584;2023-03-23T05:00:45;24.67;;;4.90;;
43142;SDS011;28750;59.842;17.584;2023-03-23T05:03:17;34.97;;;6.70;;
43142;SDS011;28750;59.842;17.584;2023-03-23T05:05:46;35.38;;;6.05;;
43142;SDS011;28750;59.842;17.584;2023-03-23T05:08:20;28.95;;;5.85;;
43142;SDS011;28750;59.842;17.584;2023-03-23T05:10:57;33.78;;;6.30;;
43142;SDS011;28750;59.842;17.584;2023-03-23T05:13:29;30.55;;;5.93;;
43142;SDS011;28750;59.842;17.584;2023-03-23T05:15:56;45.58;;;7.22;;
43142;SDS011;28750;59.842;17.584;2023-03-23T05:18:22;35.45;;;6.10;;
43142;SDS011;28750;59.842;17.584;2023-03-23T05:20:51;25.73;;;5.25;;
43142;SDS011;28750;59.842;17.584;2023-03-23T05:23:18;35.00;;;5.90;;
43142;SDS011;28750;59.842;17.584;2023-03-23T05:25:53;43.10;;;7.07;;
43142;SDS011;28750;59.842;17.584;2023-03-23T05:28:21;29.30;;;6.53;;
43142;SDS011;28750;59.842;17.584;2023-03-23T05:30:48;24.55;;;6.38;;
43142;SDS011;28750;59.842;17.584;2023-03-23T05:33:15;51.15;;;8.10;;
43142;SDS011;28750;59.842;17.584;2023-03-23T05:35:42;44.05;;;6.68;;
43142;SDS011;28750;59.842;17.584;2023-03-23T05:38:09;29.33;;;6.10;;
43142;SDS011;28750;59.842;17.584;2023-03-23T05:40:36;38.33;;;5.72;;
43142;SDS011;28750;59.842;17.584;2023-03-23T05:43:03;31.48;;;5.57;;
43142;SDS011;28750;59.842;17.584;2023-03-23T05:45:30;34.50;;;6.65;;
43142;SDS011;28750;59.842;17.584;2023-03-23T05:47:57;32.25;;;5.90;;
43142;SDS011;28750;59.842;17.584;2023-03-23T05:50:24;33.78;;;5.32;;
43142;SDS011;28750;59.842;17.584;2023-03-23T05:52:54;35.30;;;6.68;;
43142;SDS011;28750;59.842;17.584;2023-03-23T05:55:21;30.83;;;6.40;;
43142;SDS011;28750;59.842;17.584;2023-03-23T05:57:48;26.13;;;5.07;;
43142;SDS011;28750;59.842;17.584;2023-03-23T06:00:15;31.33;;;6.43;;
43142;SDS011;28750;59.842;17.584;2023-03-23T06:02:48;32.30;;;5.82;;
43142;SDS011;28750;59.842;17.584;2023-03-23T06:05:15;39.05;;;6.00;;
43142;SDS011;28750;59.842;17.584;2023-03-23T06:07:44;32.90;;;5.70;;
43142;SDS011;28750;59.842;17.584;2023-03-23T06:10:11;28.23;;;5.47;;
43142;SDS011;28750;59.842;17.584;2023-03-23T06:12:39;35.85;;;6.20;;
43142;SDS011;28750;59.842;17.584;2023-03-23T06:15:07;34.33;;;5.85;;
43142;SDS011;28750;59.842;17.584;2023-03-23T06:17:35;33.17;;;6.60;;
43142;SDS011;28750;59.842;17.584;2023-03-23T06:20:05;30.15;;;5.47;;
43142;SDS011;28750;59.842;17.584;2023-03-23T06:22:38;29.67;;;5.78;;
43142;SDS011;28750;59.842;17.584;2023-03-23T06:25:06;25.92;;;5.15;;
43142;SDS011;28750;59.842;17.584;2023-03-23T06:27:36;24.37;;;4.97;;
43142;SDS011;28750;59.842;17.584;2023-03-23T06:30:03;32.58;;;6.32;;
43142;SDS011;28750;59.842;17.584;2023-03-23T06:32:31;28.08;;;5.00;;
43142;SDS011;28750;59.842;17.584;2023-03-23T06:34:59;30.58;;;5.70;;
43142;SDS011;28750;59.842;17.584;2023-03-23T06:37:26;29.63;;;5.85;;
43142;SDS011;28750;59.842;17.584;2023-03-23T06:39:53;52.65;;;21.00;;
43142;SDS011;28750;59.842;17.584;2023-03-23T06:42:21;116.10;;;61.63;;
43142;SDS011;28750;59.842;17.584;2023-03-23T06:44:50;36.38;;;7.63;;
43142;SDS011;28750;59.842;17.584;2023-03-23T06:49:48;37.55;;;6.18;;
43142;SDS011;28750;59.842;17.584;2023-03-23T06:52:15;30.40;;;6.40;;
43142;SDS011;28750;59.842;17.584;2023-03-23T06:54:43;30.85;;;7.00;;
43142;SDS011;28750;59.842;17.584;2023-03-23T06:57:10;33.22;;;6.93;;
43142;SDS011;28750;59.842;17.584;2023-03-23T06:59:37;32.88;;;5.85;;
43142;SDS011;28750;59.842;17.584;2023-03-23T07:02:04;36.78;;;8.30;;
43142;SDS011;28750;59.842;17.584;2023-03-23T07:04:31;21.63;;;5.85;;
43142;SDS011;28750;59.842;17.584;2023-03-23T07:06:58;30.38;;;4.32;;
43142;SDS011;28750;59.842;17.584;2023-03-23T07:09:25;30.15;;;6.05;;
43142;SDS011;28750;59.842;17.584;2023-03-23T07:11:52;26.52;;;5.93;;
43142;SDS011;28750;59.842;17.584;2023-03-23T07:14:19;23.73;;;5.82;;
43142;SDS011;28750;59.842;17.584;2023-03-23T07:16:48;27.23;;;5.30;;
43142;SDS011;28750;59.842;17.584;2023-03-23T07:19:16;25.00;;;6.18;;
43142;SDS011;28750;59.842;17.584;2023-03-23T07:21:47;25.42;;;5.47;;
43142;SDS011;28750;59.842;17.584;2023-03-23T07:24:14;29.50;;;5.35;;
43142;SDS011;28750;59.842;17.584;2023-03-23T07:26:41;27.33;;;5.18;;
43142;SDS011;28750;59.842;17.584;2023-03-23T07:29:09;35.03;;;6.68;;
43142;SDS011;28750;59.842;17.584;2023-03-23T07:31:50;27.30;;;6.15;;
43142;SDS011;28750;59.842;17.584;2023-03-23T07:34:31;25.75;;;5.40;;
43142;SDS011;28750;59.842;17.584;2023-03-23T07:36:59;27.08;;;6.35;;
43142;SDS011;28750;59.842;17.584;2023-03-23T07:39:26;30.98;;;7.00;;
43142;SDS011;28750;59.842;17.584;2023-03-23T07:41:53;23.42;;;5.45;;
43142;SDS011;28750;59.842;17.584;2023-03-23T07:44:20;21.83;;;5.22;;
43142;SDS011;28750;59.842;17.584;2023-03-23T07:46:47;20.40;;;4.95;;
43142;SDS011;28750;59.842;17.584;2023-03-23T07:49:14;31.55;;;6.35;;
43142;SDS011;28750;59.842;17.584;2023-03-23T07:51:42;31.50;;;6.57;;
43142;SDS011;28750;59.842;17.584;2023-03-23T07:54:09;26.45;;;5.65;;
43142;SDS011;28750;59.842;17.584;2023-03-23T07:56:36;36.72;;;9.65;;
43142;SDS011;28750;59.842;17.584;2023-03-23T07:59:05;25.75;;;5.50;;
43142;SDS011;28750;59.842;17.584;2023-03-23T08:01:32;30.02;;;6.15;;
43142;SDS011;28750;59.842;17.584;2023-03-23T08:03:59;25.55;;;5.60;;
43142;SDS011;28750;59.842;17.584;2023-03-23T08:06:27;25.45;;;6.38;;
43142;SDS011;28750;59.842;17.584;2023-03-23T08:08:54;33.13;;;6.20;;
43142;SDS011;28750;59.842;17.584;2023-03-23T08:11:22;31.23;;;5.72;;
43142;SDS011;28750;59.842;17.584;2023-03-23T08:13:49;30.08;;;6.40;;
43142;SDS011;28750;59.842;17.584;2023-03-23T08:16:17;23.73;;;5.22;;
43142;SDS011;28750;59.842;17.584;2023-03-23T08:18:45;21.27;;;5.75;;
43142;SDS011;28750;59.842;17.584;2023-03-23T08:21:12;16.58;;;4.15;;
43142;SDS011;28750;59.842;17.584;2023-03-23T08:23:39;25.40;;;5.80;;
43142;SDS011;28750;59.842;17.584;2023-03-23T08:26:07;27.60;;;5.97;;
43142;SDS011;28750;59.842;17.584;2023-03-23T08:28:35;25.75;;;5.65;;
43142;SDS011;28750;59.842;17.584;2023-03-23T08:31:09;29.83;;;4.93;;
43142;SDS011;28750;59.842;17.584;2023-03-23T08:33:38;29.20;;;6.35;;
43142;SDS011;28750;59.842;17.584;2023-03-23T08:36:06;28.60;;;5.07;;
43142;SDS011;28750;59.842;17.584;2023-03-23T08:38:34;23.90;;;5.28;;
43142;SDS011;28750;59.842;17.584;2023-03-23T08:41:02;18.92;;;4.82;;
43142;SDS011;28750;59.842;17.584;2023-03-23T08:43:32;27.00;;;5.20;;
43142;SDS011;28750;59.842;17.584;2023-03-23T08:45:59;23.58;;;4.60;;
43142;SDS011;28750;59.842;17.584;2023-03-23T08:48:35;25.48;;;4.35;;
43142;SDS011;28750;59.842;17.584;2023-03-23T08:51:03;19.67;;;5.03;;
43142;SDS011;28750;59.842;17.584;2023-03-23T08:53:31;21.08;;;5.65;;
43142;SDS011;28750;59.842;17.584;2023-03-23T08:56:03;22.63;;;7.15;;
43142;SDS011;28750;59.842;17.584;2023-03-23T08:58:35;25.92;;;6.18;;
43142;SDS011;28750;59.842;17.584;2023-03-23T09:01:04;21.08;;;5.22;;
43142;SDS011;28750;59.842;17.584;2023-03-23T09:03:34;26.43;;;5.27;;
43142;SDS011;28750;59.842;17.584;2023-03-23T09:06:03;29.77;;;6.13;;
43142;SDS011;28750;59.842;17.584;2023-03-23T09:08:32;23.67;;;5.13;;
43142;SDS011;28750;59.842;17.584;2023-03-23T09:11:01;28.63;;;6.47;;
43142;SDS011;28750;59.842;17.584;2023-03-23T09:13:29;21.05;;;5.05;;
43142;SDS011;28750;59.842;17.584;2023-03-23T09:15:58;30.85;;;6.13;;
43142;SDS011;28750;59.842;17.584;2023-03-23T09:18:25;21.80;;;5.78;;
43142;SDS011;28750;59.842;17.584;2023-03-23T09:20:54;24.90;;;5.50;;
43142;SDS011;28750;59.842;17.584;2023-03-23T09:23:22;23.70;;;5.55;;
43142;SDS011;28750;59.842;17.584;2023-03-23T09:25:49;18.33;;;4.43;;
43142;SDS011;28750;59.842;17.584;2023-03-23T09:28:17;19.45;;;4.82;;
43142;SDS011;28750;59.842;17.584;2023-03-23T09:30:44;19.67;;;4.72;;
43142;SDS011;28750;59.842;17.584;2023-03-23T09:33:12;23.08;;;5.63;;
43142;SDS011;28750;59.842;17.584;2023-03-23T09:35:40;22.13;;;4.28;;
43142;SDS011;28750;59.842;17.584;2023-03-23T09:38:08;23.63;;;4.85;;
43142;SDS011;28750;59.842;17.584;2023-03-23T09:40:40;25.83;;;4.65;;
43142;SDS011;28750;59.842;17.584;2023-03-23T09:48:54;22.30;;;4.65;;
43142;SDS011;28750;59.842;17.584;2023-03-23T09:51:27;29.20;;;5.18;;
43142;SDS011;28750;59.842;17.584;2023-03-23T09:54:19;22.08;;;4.28;;
43142;SDS011;28750;59.842;17.584;2023-03-23T09:56:52;16.85;;;4.85;;
43142;SDS011;28750;59.842;17.584;2023-03-23T10:02:21;22.05;;;4.78;;
43142;SDS011;28750;59.842;17.584;2023-03-23T10:04:58;18.98;;;4.22;;
43142;SDS011;28750;59.842;17.584;2023-03-23T10:07:43;14.40;;;3.53;;
43142;SDS011;28750;59.842;17.584;2023-03-23T10:10:12;20.38;;;4.65;;
43142;SDS011;28750;59.842;17.584;2023-03-23T10:12:51;15.90;;;4.85;;
43142;SDS011;28750;59.842;17.584;2023-03-23T10:15:28;15.95;;;4.00;;
43142;SDS011;28750;59.842;17.584;2023-03-23T10:25:34;14.95;;;4.32;;
43142;SDS011;28750;59.842;17.584;2023-03-23T10:28:15;16.50;;;4.35;;
43142;SDS011;28750;59.842;17.584;2023-03-23T10:30:48;14.80;;;4.32;;
43142;SDS011;28750;59.842;17.584;2023-03-23T10:33:44;15.18;;;3.90;;
43142;SDS011;28750;59.842;17.584;2023-03-23T10:41:19;14.35;;;4.28;;
43142;SDS011;28750;59.842;17.584;2023-03-23T10:43:47;12.65;;;3.90;;
43142;SDS011;28750;59.842;17.584;2023-03-23T10:48:48;15.65;;;3.92;;
43142;SDS011;28750;59.842;17.584;2023-03-23T10:51:18;17.60;;;3.83;;
43142;SDS011;28750;59.842;17.584;2023-03-23T10:53:55;12.95;;;3.17;;
43142;SDS011;28750;59.842;17.584;2023-03-23T10:56:38;14.00;;;3.60;;
43142;SDS011;28750;59.842;17.584;2023-03-23T10:59:29;12.35;;;4.20;;
43142;SDS011;28750;59.842;17.584;2023-03-23T11:01:58;13.25;;;3.33;;
43142;SDS011;28750;59.842;17.584;2023-03-23T11:04:29;10.98;;;3.33;;
43142;SDS011;28750;59.842;17.584;2023-03-23T11:06:59;15.90;;;3.72;;
43142;SDS011;28750;59.842;17.584;2023-03-23T11:09:35;13.15;;;3.60;;
43142;SDS011;28750;59.842;17.584;2023-03-23T11:12:04;11.68;;;3.30;;
43142;SDS011;28750;59.842;17.584;2023-03-23T11:14:42;14.15;;;4.18;;
43142;SDS011;28750;59.842;17.584;2023-03-23T11:19:53;15.63;;;4.07;;
43142;SDS011;28750;59.842;17.584;2023-03-23T11:22:27;11.60;;;3.67;;
43142;SDS011;28750;59.842;17.584;2023-03-23T11:25:01;13.88;;;3.65;;
43142;SDS011;28750;59.842;17.584;2023-03-23T11:27:30;13.70;;;3.55;;
43142;SDS011;28750;59.842;17.584;2023-03-23T11:30:00;11.82;;;3.53;;
43142;SDS011;28750;59.842;17.584;2023-03-23T11:32:44;9.55;;;3.13;;
43142;SDS011;28750;59.842;17.584;2023-03-23T11:35:20;12.88;;;3.60;;
43142;SDS011;28750;59.842;17.584;2023-03-23T11:37:52;12.27;;;3.38;;
43142;SDS011;28750;59.842;17.584;2023-03-23T11:40:23;14.52;;;3.88;;
43142;SDS011;28750;59.842;17.584;2023-03-23T11:45:21;11.38;;;3.22;;
43142;SDS011;28750;59.842;17.584;2023-03-23T11:50:59;13.30;;;3.88;;
43142;SDS011;28750;59.842;17.584;2023-03-23T11:56:43;12.73;;;3.78;;
43142;SDS011;28750;59.842;17.584;2023-03-23T11:59:28;14.93;;;3.65;;
43142;SDS011;28750;59.842;17.584;2023-03-23T12:04:57;16.05;;;3.55;;
43142;SDS011;28750;59.842;17.584;2023-03-23T12:15:31;12.80;;;3.22;;
43142;SDS011;28750;59.842;17.584;2023-03-23T12:32:53;10.97;;;2.77;;
43142;SDS011;28750;59.842;17.584;2023-03-23T12:39:29;13.40;;;3.35;;
43142;SDS011;28750;59.842;17.584;2023-03-23T12:47:57;14.98;;;4.07;;
43142;SDS011;28750;59.842;17.584;2023-03-23T12:53:03;11.52;;;3.25;;
43142;SDS011;28750;59.842;17.584;2023-03-23T12:58:19;13.18;;;3.47;;
43142;SDS011;28750;59.842;17.584;2023-03-23T13:01:02;13.05;;;3.97;;
43142;SDS011;28750;59.842;17.584;2023-03-23T13:09:01;7.72;;;3.40;;
43142;SDS011;28750;59.842;17.584;2023-03-23T13:11:34;9.18;;;2.45;;
43142;SDS011;28750;59.842;17.584;2023-03-23T13:19:37;11.95;;;3.22;;
43142;SDS011;28750;59.842;17.584;2023-03-23T13:25:07;14.85;;;3.10;;
43142;SDS011;28750;59.842;17.584;2023-03-23T13:27:42;8.75;;;3.17;;
43142;SDS011;28750;59.842;17.584;2023-03-23T13:30:19;8.75;;;2.97;;
43142;SDS011;28750;59.842;17.584;2023-03-23T13:32:49;11.13;;;2.90;;
43142;SDS011;28750;59.842;17.584;2023-03-23T13:35:18;11.45;;;3.42;;
43142;SDS011;28750;59.842;17.584;2023-03-23T13:37:48;10.02;;;2.97;;
43142;SDS011;28750;59.842;17.584;2023-03-23T13:40:25;9.90;;;2.78;;
43142;SDS011;28750;59.842;17.584;2023-03-23T13:42:57;13.43;;;3.28;;
43142;SDS011;28750;59.842;17.584;2023-03-23T13:48:16;8.93;;;2.97;;
43142;SDS011;28750;59.842;17.584;2023-03-23T13:53:24;13.32;;;3.45;;
43142;SDS011;28750;59.842;17.584;2023-03-23T13:56:05;15.45;;;3.90;;
43142;SDS011;28750;59.842;17.584;2023-03-23T13:58:45;15.40;;;3.40;;
43142;SDS011;28750;59.842;17.584;2023-03-23T14:01:16;13.05;;;3.50;;
43142;SDS011;28750;59.842;17.584;2023-03-23T14:03:49;16.77;;;4.35;;
43142;SDS011;28750;59.842;17.584;2023-03-23T14:06:21;17.55;;;4.10;;
43142;SDS011;28750;59.842;17.584;2023-03-23T14:08:53;13.85;;;2.88;;
43142;SDS011;28750;59.842;17.584;2023-03-23T14:21:49;8.02;;;2.80;;
43142;SDS011;28750;59.842;17.584;2023-03-23T14:24:23;12.50;;;2.90;;
43142;SDS011;28750;59.842;17.584;2023-03-23T14:26:53;13.13;;;3.33;;
43142;SDS011;28750;59.842;17.584;2023-03-23T14:29:33;9.52;;;3.40;;
43142;SDS011;28750;59.842;17.584;2023-03-23T14:32:01;11.00;;;3.13;;
43142;SDS011;28750;59.842;17.584;2023-03-23T14:34:31;11.40;;;3.45;;
43142;SDS011;28750;59.842;17.584;2023-03-23T14:36:59;13.13;;;2.60;;
43142;SDS011;28750;59.842;17.584;2023-03-23T14:39:28;10.70;;;2.80;;
43142;SDS011;28750;59.842;17.584;2023-03-23T14:42:01;9.82;;;2.65;;
43142;SDS011;28750;59.842;17.584;2023-03-23T14:44:33;15.85;;;3.55;;
43142;SDS011;28750;59.842;17.584;2023-03-23T14:47:09;10.73;;;3.25;;
43142;SDS011;28750;59.842;17.584;2023-03-23T14:49:55;14.60;;;2.63;;
43142;SDS011;28750;59.842;17.584;2023-03-23T14:52:33;10.98;;;2.83;;
43142;SDS011;28750;59.842;17.584;2023-03-23T14:55:21;13.57;;;3.47;;
43142;SDS011;28750;59.842;17.584;2023-03-23T14:57:51;12.30;;;2.95;;
43142;SDS011;28750;59.842;17.584;2023-03-23T15:05:20;9.95;;;2.95;;
43142;SDS011;28750;59.842;17.584;2023-03-23T15:07:58;8.65;;;2.80;;
43142;SDS011;28750;59.842;17.584;2023-03-23T15:10:53;13.43;;;3.67;;
43142;SDS011;28750;59.842;17.584;2023-03-23T15:13:43;11.57;;;3.00;;
43142;SDS011;28750;59.842;17.584;2023-03-23T15:16:13;14.43;;;3.03;;
43142;SDS011;28750;59.842;17.584;2023-03-23T15:18:53;12.48;;;2.95;;
43142;SDS011;28750;59.842;17.584;2023-03-23T15:21:26;12.68;;;2.97;;
43142;SDS011;28750;59.842;17.584;2023-03-23T15:23:56;9.50;;;2.55;;
43142;SDS011;28750;59.842;17.584;2023-03-23T15:29:04;18.20;;;3.90;;
43142;SDS011;28750;59.842;17.584;2023-03-23T15:31:39;10.80;;;2.65;;
43142;SDS011;28750;59.842;17.584;2023-03-23T15:34:19;11.75;;;3.17;;
43142;SDS011;28750;59.842;17.584;2023-03-23T15:36:59;11.63;;;3.20;;
43142;SDS011;28750;59.842;17.584;2023-03-23T15:39:29;12.75;;;2.72;;
43142;SDS011;28750;59.842;17.584;2023-03-23T15:41:58;12.52;;;2.83;;
43142;SDS011;28750;59.842;17.584;2023-03-23T15:44:27;10.40;;;2.97;;
43142;SDS011;28750;59.842;17.584;2023-03-23T15:47:18;8.20;;;2.53;;
43142;SDS011;28750;59.842;17.584;2023-03-23T15:49:46;11.38;;;2.70;;
43142;SDS011;28750;59.842;17.584;2023-03-23T15:54:54;7.97;;;2.70;;
43142;SDS011;28750;59.842;17.584;2023-03-23T15:57:21;9.85;;;2.70;;
43142;SDS011;28750;59.842;17.584;2023-03-23T15:59:48;14.43;;;3.00;;
43142;SDS011;28750;59.842;17.584;2023-03-23T16:02:20;16.73;;;3.15;;
43142;SDS011;28750;59.842;17.584;2023-03-23T16:04:49;25.60;;;3.35;;
43142;SDS011;28750;59.842;17.584;2023-03-23T16:07:18;28.20;;;3.95;;
43142;SDS011;28750;59.842;17.584;2023-03-23T16:09:48;19.00;;;3.20;;
43142;SDS011;28750;59.842;17.584;2023-03-23T16:12:15;13.07;;;2.95;;
43142;SDS011;28750;59.842;17.584;2023-03-23T16:14:42;19.95;;;3.53;;
43142;SDS011;28750;59.842;17.584;2023-03-23T16:17:14;21.05;;;3.05;;
43142;SDS011;28750;59.842;17.584;2023-03-23T16:19:44;20.67;;;3.22;;
43142;SDS011;28750;59.842;17.584;2023-03-23T16:22:10;18.42;;;3.25;;
43142;SDS011;28750;59.842;17.584;2023-03-23T16:24:37;15.75;;;3.05;;
43142;SDS011;28750;59.842;17.584;2023-03-23T16:27:04;18.80;;;3.20;;
43142;SDS011;28750;59.842;17.584;2023-03-23T16:29:31;18.55;;;3.72;;
43142;SDS011;28750;59.842;17.584;2023-03-23T16:31:58;16.13;;;3.08;;
43142;SDS011;28750;59.842;17.584;2023-03-23T16:34:25;11.18;;;3.05;;
43142;SDS011;28750;59.842;17.584;2023-03-23T16:36:54;10.68;;;2.47;;
43142;SDS011;28750;59.842;17.584;2023-03-23T16:39:21;11.73;;;2.83;;
43142;SDS011;28750;59.842;17.584;2023-03-23T16:41:48;17.55;;;3.00;;
43142;SDS011;28750;59.842;17.584;2023-03-23T16:44:15;16.58;;;3.22;;
43142;SDS011;28750;59.842;17.584;2023-03-23T16:46:42;12.10;;;3.42;;
43142;SDS011;28750;59.842;17.584;2023-03-23T16:49:09;19.20;;;3.22;;
43142;SDS011;28750;59.842;17.584;2023-03-23T16:51:35;15.85;;;3.47;;
43142;SDS011;28750;59.842;17.584;2023-03-23T16:54:03;13.98;;;3.03;;
43142;SDS011;28750;59.842;17.584;2023-03-23T16:56:30;7.43;;;2.65;;
43142;SDS011;28750;59.842;17.584;2023-03-23T16:58:57;9.82;;;2.60;;
43142;SDS011;28750;59.842;17.584;2023-03-23T17:01:24;18.98;;;3.20;;
43142;SDS011;28750;59.842;17.584;2023-03-23T17:03:51;29.73;;;3.55;;
43142;SDS011;28750;59.842;17.584;2023-03-23T17:06:19;31.30;;;4.03;;
43142;SDS011;28750;59.842;17.584;2023-03-23T17:08:46;13.35;;;2.80;;